Time;durP1;ratioP1;P1;durP2;ratioP2;P2;SDS_P1;SDS_P2;PMS_P1;PMS_P2;Temp;Humidity;BMP_temperature;BMP_pressure;BME280_temperature;BME280_humidity;BME280_pressure;Samples;Min_cycle;Max_cycle;Signal;HPM_P1;HPM_P2
2021/10/21 00:00:28;;;;;;;8.93;4.63;;;;;;;13.14;100.00;95114.56;5030892;28;20026;-75
2021/10/21 00:02:54;;;;;;;7.47;4.97;;;;;;;13.08;100.00;95110.13;5028117;28;20033;-76
2021/10/21 00:05:20;;;;;;;9.37;5.00;;;;;;;13.06;100.00;95106.84;5035792;28;20029;-75
2021/10/21 00:07:45;;;;;;;9.80;5.17;;;;;;;13.05;100.00;95124.53;5024822;28;20034;-75
2021/10/21 00:10:11;;;;;;;8.90;5.83;;;;;;;13.00;100.00;95123.50;5044670;28;20029;-76
2021/10/21 00:12:37;;;;;;;11.00;5.93;;;;;;;13.06;100.00;95114.78;5044831;28;20095;-76
2021/10/21 00:15:05;;;;;;;9.27;5.57;;;;;;;13.03;100.00;95110.69;5031184;28;20041;-76
2021/10/21 00:17:31;;;;;;;8.77;5.30;;;;;;;12.95;100.00;95105.63;5033292;28;20029;-76
2021/10/21 00:19:57;;;;;;;11.60;5.90;;;;;;;12.90;100.00;95102.78;5038213;28;20064;-76
2021/10/21 00:22:23;;;;;;;8.17;5.30;;;;;;;12.89;100.00;95095.88;5038490;28;20041;-75
2021/10/21 00:24:48;;;;;;;9.40;6.13;;;;;;;12.88;100.00;95087.16;5035107;28;20090;-75
2021/10/21 00:27:14;;;;;;;7.93;5.53;;;;;;;12.79;100.00;95077.81;5035559;28;20028;-75
2021/10/21 00:29:40;;;;;;;9.20;5.50;;;;;;;12.77;100.00;95082.44;5035733;28;20486;-76
2021/10/21 00:32:06;;;;;;;12.37;7.40;;;;;;;12.69;100.00;95078.19;5025341;28;20021;-76
2021/10/21 00:34:32;;;;;;;10.03;6.17;;;;;;;12.60;100.00;95104.94;5027691;28;20441;-75
2021/10/21 00:36:57;;;;;;;8.80;5.57;;;;;;;12.59;100.00;95069.84;5038730;28;20028;-76
2021/10/21 00:39:23;;;;;;;10.07;6.07;;;;;;;12.63;100.00;95060.53;5031444;28;20124;-75
2021/10/21 00:41:49;;;;;;;10.17;6.27;;;;;;;12.63;100.00;95071.06;5076701;28;20017;-75
2021/10/21 00:44:16;;;;;;;8.90;6.27;;;;;;;12.53;100.00;95049.56;5033654;28;20127;-75
2021/10/21 00:46:42;;;;;;;8.07;5.27;;;;;;;12.55;100.00;95068.63;5030185;28;20479;-75
2021/10/21 00:49:08;;;;;;;8.57;5.83;;;;;;;12.55;100.00;95062.56;5035034;28;20041;-75
2021/10/21 00:51:36;;;;;;;8.20;6.03;;;;;;;12.58;100.00;95067.44;5032609;28;20604;-75
2021/10/21 00:54:03;;;;;;;7.23;5.30;;;;;;;12.51;100.00;95067.41;5030916;28;20513;-75
2021/10/21 00:56:29;;;;;;;9.53;6.17;;;;;;;12.56;100.00;95069.44;5034270;28;20025;-75
2021/10/21 00:58:55;;;;;;;8.37;5.70;;;;;;;12.49;100.00;95054.41;5011439;28;20683;-75
2021/10/21 01:01:22;;;;;;;7.60;5.80;;;;;;;12.52;100.00;95047.13;5024152;28;20061;-75
2021/10/21 01:03:50;;;;;;;8.23;5.37;;;;;;;12.34;100.00;95024.78;5035636;28;20388;-75
2021/10/21 01:06:17;;;;;;;7.80;5.50;;;;;;;12.21;100.00;95008.94;5038105;28;20449;-75
2021/10/21 01:08:43;;;;;;;8.77;6.13;;;;;;;12.26;100.00;95019.69;5037820;28;20613;-75
2021/10/21 01:11:09;;;;;;;8.53;5.73;;;;;;;12.30;100.00;95015.63;5033439;28;20029;-76
2021/10/21 01:13:35;;;;;;;8.30;5.83;;;;;;;12.17;100.00;95008.53;5034989;28;20037;-76
2021/10/21 01:16:05;;;;;;;8.77;6.40;;;;;;;12.21;100.00;95035.28;5028134;28;20094;-76
2021/10/21 01:18:30;;;;;;;7.37;5.83;;;;;;;12.19;100.00;95024.94;5016961;28;20478;-75
2021/10/21 01:20:58;;;;;;;8.23;5.93;;;;;;;12.15;100.00;95017.63;5035048;28;20021;-73
2021/10/21 01:23:23;;;;;;;9.47;5.77;;;;;;;12.10;100.00;95017.41;5039453;28;20038;-75
2021/10/21 01:25:50;;;;;;;8.90;5.77;;;;;;;12.10;100.00;94999.75;5042360;28;20028;-75
2021/10/21 01:28:16;;;;;;;9.30;5.60;;;;;;;12.01;100.00;94977.25;5035617;28;20030;-75
2021/10/21 01:30:41;;;;;;;10.47;6.83;;;;;;;11.88;100.00;94967.50;5033146;28;20052;-75
2021/10/21 01:33:07;;;;;;;10.33;6.40;;;;;;;11.99;100.00;94971.38;5027094;28;20029;-75
2021/10/21 01:35:33;;;;;;;9.13;6.13;;;;;;;11.86;100.00;94953.69;5011058;28;20024;-76
2021/10/21 01:37:59;;;;;;;8.57;5.80;;;;;;;11.82;100.00;94941.91;5025131;28;20041;-75
2021/10/21 01:40:25;;;;;;;8.80;6.17;;;;;;;11.75;100.00;94935.81;5031597;28;20078;-75
2021/10/21 01:42:51;;;;;;;9.60;6.03;;;;;;;11.81;100.00;94919.22;5012755;28;20390;-75
2021/10/21 01:45:32;;;;;;;9.87;7.20;;;;;;;11.77;100.00;94904.84;5028638;28;20033;-75
2021/10/21 01:48:00;;;;;;;10.67;6.87;;;;;;;11.82;100.00;94898.97;5031213;28;20044;-74
2021/10/21 01:50:28;;;;;;;11.47;7.83;;;;;;;11.85;100.00;94907.31;5024432;28;20036;-75
2021/10/21 01:52:54;;;;;;;11.53;7.93;;;;;;;11.88;100.00;94920.06;5027353;28;20040;-75
2021/10/21 01:55:20;;;;;;;14.43;10.03;;;;;;;11.83;100.00;94911.91;5022975;28;20432;-74
2021/10/21 01:57:46;;;;;;;14.07;10.77;;;;;;;11.87;100.00;94913.19;5038607;28;20037;-75
2021/10/21 02:00:15;;;;;;;14.47;11.07;;;;;;;11.87;100.00;94918.47;5028792;28;20363;-75
2021/10/21 02:02:44;;;;;;;14.20;9.90;;;;;;;11.80;100.00;94920.22;5033867;28;20033;-75
2021/10/21 02:05:12;;;;;;;13.70;9.80;;;;;;;11.82;100.00;94922.66;5047712;28;20472;-75
2021/10/21 02:07:38;;;;;;;14.90;8.70;;;;;;;11.78;100.00;94893.28;5011827;28;20033;-75
2021/10/21 02:10:06;;;;;;;12.17;8.20;;;;;;;11.82;100.00;94883.97;5035152;28;20029;-75
2021/10/21 02:12:32;;;;;;;13.03;7.73;;;;;;;11.85;100.00;94867.78;5046864;28;20045;-75
2021/10/21 02:14:57;;;;;;;12.13;7.93;;;;;;;11.82;100.00;94865.53;5039816;28;20763;-75
2021/10/21 02:17:25;;;;;;;9.90;7.20;;;;;;;12.00;100.00;94842.09;5041512;28;20044;-75
2021/10/21 02:19:52;;;;;;;10.73;6.47;;;;;;;12.21;100.00;94829.72;5039479;28;20017;-74
2021/10/21 02:22:18;;;;;;;9.27;6.10;;;;;;;12.36;100.00;94832.94;5028033;28;20038;-75
2021/10/21 02:24:45;;;;;;;10.57;6.13;;;;;;;12.36;100.00;94832.94;5045710;28;20033;-74
2021/10/21 02:27:11;;;;;;;8.20;5.47;;;;;;;12.40;100.00;94807.78;5045473;28;20041;-75
2021/10/21 02:29:37;;;;;;;8.57;5.77;;;;;;;12.37;100.00;94808.19;5040090;28;20052;-75
2021/10/21 02:32:03;;;;;;;8.83;5.77;;;;;;;12.45;100.00;94805.34;5038644;28;20042;-74
2021/10/21 02:34:29;;;;;;;8.43;5.77;;;;;;;12.60;100.00;94799.03;5023720;28;20037;-74
2021/10/21 02:36:55;;;;;;;9.70;5.33;;;;;;;12.70;100.00;94802.03;5041719;28;20115;-74
2021/10/21 02:39:21;;;;;;;6.57;4.40;;;;;;;12.73;100.00;94801.63;5040581;28;20025;-75
2021/10/21 02:41:46;;;;;;;7.87;4.63;;;;;;;12.71;100.00;94799.22;5039532;28;20111;-75
2021/10/21 02:44:12;;;;;;;7.23;4.20;;;;;;;12.83;100.00;94807.28;5041085;28;20064;-75
2021/10/21 02:46:38;;;;;;;7.00;4.40;;;;;;;12.84;100.00;94771.94;5039171;28;20033;-75
2021/10/21 02:49:03;;;;;;;8.73;4.67;;;;;;;12.78;100.00;94730.59;5028020;28;20541;-75
2021/10/21 02:51:29;;;;;;;9.60;4.33;;;;;;;12.69;100.00;94724.75;5029557;28;20053;-75
2021/10/21 02:53:55;;;;;;;8.17;4.60;;;;;;;12.62;100.00;94729.25;5038085;28;20017;-75
2021/10/21 02:56:22;;;;;;;8.67;4.90;;;;;;;12.88;100.00;94733.59;5036200;28;20037;-75
2021/10/21 02:58:48;;;;;;;8.73;5.60;;;;;;;12.79;100.00;94728.78;5034573;28;20095;-74
2021/10/21 03:01:13;;;;;;;8.20;5.00;;;;;;;12.75;100.00;94720.47;5024534;28;20040;-75
2021/10/21 03:03:39;;;;;;;7.33;5.00;;;;;;;12.77;100.00;94728.97;5030228;28;20442;-75
2021/10/21 03:06:05;;;;;;;8.60;4.90;;;;;;;12.82;100.00;94752.91;5031673;28;20033;-75
2021/10/21 03:08:31;;;;;;;8.47;5.23;;;;;;;12.87;100.00;94749.63;5015360;28;20595;-74
2021/10/21 03:10:57;;;;;;;8.43;5.63;;;;;;;12.92;100.00;94763.00;5032105;28;20025;-75
2021/10/21 03:13:22;;;;;;;7.93;5.43;;;;;;;12.94;100.00;94768.88;5046818;28;20056;-75
2021/10/21 03:15:48;;;;;;;8.17;5.30;;;;;;;12.94;100.00;94748.59;5035427;28;20029;-75
2021/10/21 03:18:15;;;;;;;9.63;6.07;;;;;;;12.90;100.00;94767.69;5039406;28;20514;-75
2021/10/21 03:20:40;;;;;;;7.77;5.53;;;;;;;12.90;100.00;94754.47;5019244;28;20025;-75
2021/10/21 03:23:06;;;;;;;8.57;5.90;;;;;;;12.93;100.00;94756.72;5031919;28;20031;-75
2021/10/21 03:25:32;;;;;;;9.93;6.57;;;;;;;12.88;100.00;94730.16;5035972;28;20044;-74
2021/10/21 03:27:58;;;;;;;10.60;6.63;;;;;;;12.79;100.00;94724.31;5026886;28;20033;-74
2021/10/21 03:30:24;;;;;;;9.27;6.80;;;;;;;12.82;100.00;94721.25;5035101;28;20742;-75
2021/10/21 03:32:50;;;;;;;9.57;6.80;;;;;;;12.85;100.00;94715.56;5035879;28;20018;-74
2021/10/21 03:35:16;;;;;;;10.40;6.73;;;;;;;12.83;100.00;94733.41;5028587;28;20029;-74
2021/10/21 03:37:42;;;;;;;10.53;7.37;;;;;;;12.80;100.00;94733.00;5036769;28;20505;-75
2021/10/21 03:40:10;;;;;;;12.70;7.47;;;;;;;12.82;100.00;94731.78;5034691;28;20116;-74
2021/10/21 03:42:36;;;;;;;8.77;6.63;;;;;;;12.88;100.00;94730.16;5017114;28;20512;-76
2021/10/21 03:45:03;;;;;;;9.13;6.40;;;;;;;12.87;100.00;94729.31;5032643;28;20521;-75
2021/10/21 03:47:29;;;;;;;11.27;6.20;;;;;;;12.81;100.00;94740.75;5020638;28;20058;-75
2021/10/21 03:49:55;;;;;;;10.80;6.73;;;;;;;12.86;100.00;94732.19;5034126;28;20064;-75
2021/10/21 03:52:21;;;;;;;8.07;5.57;;;;;;;12.87;100.00;94741.72;5030126;28;20080;-75
2021/10/21 03:54:48;;;;;;;7.00;4.33;;;;;;;13.00;100.00;94759.31;5035659;28;20505;-74
2021/10/21 03:57:14;;;;;;;10.03;6.40;;;;;;;12.94;100.00;94769.69;5036883;28;20852;-74
2021/10/21 03:59:40;;;;;;;8.80;5.10;;;;;;;12.93;100.00;94754.06;5032222;28;20053;-74
2021/10/21 04:02:06;;;;;;;8.10;4.43;;;;;;;12.97;100.00;94773.72;5041708;28;20161;-75
2021/10/21 04:04:32;;;;;;;9.50;5.40;;;;;;;12.92;100.00;94779.66;5022489;28;20080;-74
2021/10/21 04:06:58;;;;;;;5.50;3.67;;;;;;;13.03;100.00;94764.19;5041867;28;20025;-75
2021/10/21 04:09:24;;;;;;;4.80;2.53;;;;;;;13.46;100.00;94763.56;5010846;28;20507;-74
2021/10/21 04:11:50;;;;;;;6.30;3.10;;;;;;;13.29;100.00;94755.34;5029621;28;20102;-75
2021/10/21 04:14:17;;;;;;;5.33;3.13;;;;;;;13.38;100.00;94756.69;5040080;28;20114;-74
2021/10/21 04:16:43;;;;;;;5.30;3.13;;;;;;;13.32;100.00;94768.94;5036192;28;20045;-75
2021/10/21 04:19:09;;;;;;;5.50;3.00;;;;;;;13.24;100.00;94774.44;5023430;28;20120;-75
2021/10/21 04:21:35;;;;;;;7.37;3.60;;;;;;;13.20;100.00;94778.50;5027323;28;20017;-75
2021/10/21 04:24:01;;;;;;;4.47;2.70;;;;;;;13.30;100.00;94780.72;5046376;28;20031;-74
2021/10/21 04:26:27;;;;;;;4.80;2.77;;;;;;;13.38;100.00;94791.00;5030262;28;20498;-76
2021/10/21 04:28:53;;;;;;;5.13;2.60;;;;;;;13.41;100.00;94807.28;5012394;28;20037;-75
2021/10/21 04:31:19;;;;;;;5.37;2.00;;;;;;;13.42;100.00;94793.03;5039600;28;20036;-75
2021/10/21 04:33:45;;;;;;;3.27;1.63;;;;;;;13.51;100.00;94800.69;5056644;28;20030;-75
2021/10/21 04:36:11;;;;;;;3.20;1.60;;;;;;;13.52;100.00;94807.63;5019501;28;20025;-74
2021/10/21 04:38:37;;;;;;;6.13;1.77;;;;;;;13.43;100.00;94825.53;5033550;28;20426;-76
2021/10/21 04:41:03;;;;;;;2.63;1.30;;;;;;;13.48;100.00;94809.03;5020052;28;20422;-75
2021/10/21 04:43:28;;;;;;;2.27;1.10;;;;;;;13.47;100.00;94821.44;5025733;28;20497;-75
2021/10/21 04:45:54;;;;;;;4.27;1.10;;;;;;;13.53;100.00;94817.16;5018210;28;20021;-75
2021/10/21 04:48:20;;;;;;;2.50;0.80;;;;;;;13.44;100.00;94795.47;5050724;28;20041;-74
2021/10/21 04:50:46;;;;;;;3.53;1.20;;;;;;;13.40;100.00;94816.19;5025108;28;20026;-75
2021/10/21 04:53:12;;;;;;;1.53;0.80;;;;;;;13.32;100.00;94818.28;5036997;28;20029;-75
2021/10/21 04:55:38;;;;;;;1.60;0.83;;;;;;;13.29;100.00;94803.69;5029267;28;20048;-75
2021/10/21 04:58:04;;;;;;;2.57;0.97;;;;;;;13.24;100.00;94813.19;5037816;28;20476;-75
2021/10/21 05:00:31;;;;;;;2.37;0.70;;;;;;;13.24;98.35;94807.94;5016042;28;20060;-75
2021/10/21 05:02:57;;;;;;;1.87;1.00;;;;;;;13.16;97.30;94825.63;5033374;28;20025;-75
2021/10/21 05:05:23;;;;;;;2.40;0.60;;;;;;;13.12;96.29;94821.00;5032580;28;20082;-75
2021/10/21 05:07:49;;;;;;;2.50;0.73;;;;;;;13.04;95.18;94800.09;5038315;28;20528;-75
2021/10/21 05:10:14;;;;;;;3.30;0.77;;;;;;;12.91;97.98;94822.06;5060802;28;20063;-75
2021/10/21 05:12:40;;;;;;;2.83;1.20;;;;;;;12.86;95.70;94832.44;5008915;28;20025;-75
2021/10/21 05:15:07;;;;;;;3.23;0.60;;;;;;;12.78;95.73;94838.75;5039369;28;20642;-75
2021/10/21 05:17:33;;;;;;;2.60;0.80;;;;;;;12.64;95.72;94842.41;5036123;28;20033;-75
2021/10/21 05:19:59;;;;;;;3.63;0.90;;;;;;;12.66;93.14;94843.03;5038521;28;20024;-75
2021/10/21 05:22:34;;;;;;;1.67;0.67;;;;;;;12.58;92.90;94840.63;5021768;28;20030;-75
2021/10/21 05:24:59;;;;;;;3.47;0.90;;;;;;;12.50;93.35;94871.44;5025585;28;20068;-75
2021/10/21 05:27:25;;;;;;;3.70;1.20;;;;;;;12.40;93.15;94859.69;5037283;28;20020;-75
2021/10/21 05:29:51;;;;;;;1.40;0.70;;;;;;;12.42;91.52;94884.84;5028924;28;20141;-75
2021/10/21 05:32:17;;;;;;;2.60;0.90;;;;;;;12.32;92.69;94871.28;5019641;28;20025;-75
2021/10/21 05:34:45;;;;;;;4.77;1.27;;;;;;;12.22;93.68;94881.41;5034773;28;20055;-75
2021/10/21 05:37:10;;;;;;;3.40;0.90;;;;;;;12.15;95.09;94894.56;5033197;28;20033;-75
2021/10/21 05:39:36;;;;;;;1.53;0.60;;;;;;;12.08;93.88;94903.50;5036422;28;20041;-75
2021/10/21 05:42:02;;;;;;;3.73;0.80;;;;;;;12.06;93.56;94905.50;5049141;28;20025;-74
2021/10/21 05:44:28;;;;;;;5.00;1.43;;;;;;;12.05;93.13;94912.63;5041366;28;20043;-75
2021/10/21 05:46:54;;;;;;;3.00;0.87;;;;;;;11.96;93.61;94917.25;5040202;28;20497;-74
2021/10/21 05:49:20;;;;;;;4.93;0.80;;;;;;;11.97;91.40;94916.25;5035115;28;20040;-75
2021/10/21 05:51:46;;;;;;;3.00;0.83;;;;;;;11.90;92.69;94923.31;5047953;28;20031;-75
2021/10/21 05:54:12;;;;;;;2.70;0.70;;;;;;;11.83;93.53;94906.66;5038417;28;20038;-75
2021/10/21 05:56:38;;;;;;;3.90;1.40;;;;;;;11.81;92.15;94913.97;5036647;28;20026;-75
2021/10/21 05:59:03;;;;;;;3.63;0.80;;;;;;;11.81;92.11;94929.75;5028627;28;20045;-75
2021/10/21 06:01:30;;;;;;;3.13;0.70;;;;;;;11.78;92.11;94922.25;5043240;28;20033;-75
2021/10/21 06:03:56;;;;;;;3.30;0.90;;;;;;;11.75;92.51;94927.91;5040885;28;20734;-75
2021/10/21 06:06:21;;;;;;;2.40;0.70;;;;;;;11.72;94.09;94939.66;5032648;28;20103;-75
2021/10/21 06:08:47;;;;;;;2.57;0.80;;;;;;;11.69;95.09;94947.94;5040657;28;20068;-75
2021/10/21 06:11:13;;;;;;;5.87;1.20;;;;;;;11.87;93.47;94950.06;5028773;28;20075;-75
2021/10/21 06:13:40;;;;;;;5.57;1.17;;;;;;;11.79;95.45;94956.28;5031605;28;20045;-75
2021/10/21 06:16:06;;;;;;;2.63;0.80;;;;;;;11.80;94.33;94972.88;5039011;28;20626;-75
2021/10/21 06:18:34;;;;;;;7.37;1.30;;;;;;;11.83;91.32;94969.88;5047595;28;20128;-75
2021/10/21 06:21:06;;;;;;;6.53;0.70;;;;;;;11.80;89.04;94975.53;5045538;28;20028;-75
2021/10/21 06:23:33;;;;;;;5.23;1.20;;;;;;;11.71;90.39;95005.69;5038026;28;20825;-74
2021/10/21 06:25:58;;;;;;;6.90;0.97;;;;;;;11.66;90.13;95000.19;5045202;28;20026;-75
2021/10/21 06:28:24;;;;;;;6.10;1.20;;;;;;;11.63;87.43;95001.38;5044261;28;20044;-75
2021/10/21 06:30:50;;;;;;;4.50;0.90;;;;;;;11.67;85.19;95012.34;5037981;28;20033;-74
2021/10/21 06:33:16;;;;;;;6.60;1.27;;;;;;;11.65;84.68;95017.81;5028377;28;20140;-74
2021/10/21 06:35:43;;;;;;;6.67;1.30;;;;;;;11.58;84.88;95030.16;5038496;28;20052;-74
2021/10/21 06:38:09;;;;;;;7.83;2.10;;;;;;;11.53;85.49;95037.81;5035606;28;20047;-75
2021/10/21 06:40:35;;;;;;;4.60;1.07;;;;;;;11.58;82.53;95040.69;5032320;28;20022;-75
2021/10/21 06:43:00;;;;;;;8.80;1.10;;;;;;;11.52;83.57;95037.00;5041330;28;20036;-74
2021/10/21 06:45:27;;;;;;;6.83;1.50;;;;;;;11.49;82.99;95055.81;5040793;28;20389;-75
2021/10/21 06:47:52;;;;;;;4.03;0.90;;;;;;;11.47;83.17;95049.94;5037459;28;20044;-75
2021/10/21 06:50:19;;;;;;;7.10;1.07;;;;;;;11.49;83.30;95065.53;5031121;28;20029;-75
2021/10/21 06:52:45;;;;;;;7.40;1.23;;;;;;;11.42;82.56;95068.13;5020846;28;20036;-74
2021/10/21 06:55:15;;;;;;;5.07;0.80;;;;;;;11.40;82.11;95064.88;5029492;28;20033;-75
2021/10/21 06:57:47;;;;;;;7.07;1.63;;;;;;;11.56;82.08;95059.28;5045738;28;20029;-74
2021/10/21 07:00:14;;;;;;;7.45;1.35;;;;;;;11.72;80.46;95052.09;5035078;28;20563;-74
2021/10/21 07:02:40;;;;;;;7.17;1.00;;;;;;;11.99;78.93;95061.75;5033698;28;20041;-74
2021/10/21 07:05:07;;;;;;;8.70;1.10;;;;;;;11.98;77.80;95068.06;5035484;28;20034;-74
2021/10/21 07:07:33;;;;;;;13.70;1.43;;;;;;;11.83;78.19;95062.06;5021429;28;20022;-74
2021/10/21 07:10:00;;;;;;;7.73;1.30;;;;;;;12.30;75.79;95055.16;5035527;28;20033;-74
2021/10/21 07:12:27;;;;;;;6.77;1.10;;;;;;;12.68;75.32;95068.66;5045031;28;20053;-74
2021/10/21 07:14:53;;;;;;;5.87;1.30;;;;;;;13.04;72.15;95067.44;5040297;28;20707;-75
2021/10/21 07:17:18;;;;;;;8.70;1.17;;;;;;;13.04;71.90;95072.72;5039550;28;20129;-75
2021/10/21 07:19:49;;;;;;;10.77;1.70;;;;;;;12.83;72.08;95076.38;5034118;28;20086;-75
2021/10/21 07:22:15;;;;;;;7.03;1.57;;;;;;;12.78;72.13;95091.22;5033495;28;20033;-75
2021/10/21 07:24:42;;;;;;;9.60;2.23;;;;;;;12.66;73.21;95096.25;5035282;28;20029;-75
2021/10/21 07:27:08;;;;;;;8.07;1.33;;;;;;;12.93;72.29;95108.47;5029288;28;20041;-75
2021/10/21 07:29:34;;;;;;;7.00;1.97;;;;;;;12.37;74.47;95121.09;5041043;28;20112;-75
2021/10/21 07:32:00;;;;;;;7.17;1.67;;;;;;;12.12;74.38;95123.44;5019687;28;20127;-75
2021/10/21 07:34:26;;;;;;;5.93;1.00;;;;;;;12.16;74.56;95104.41;5040251;28;20092;-75
2021/10/21 07:36:52;;;;;;;9.93;1.63;;;;;;;12.09;73.64;95106.19;5036280;28;20132;-75
2021/10/21 07:39:17;;;;;;;7.40;1.97;;;;;;;12.15;73.80;95146.78;5037356;28;20033;-75
2021/10/21 07:41:44;;;;;;;7.53;1.10;;;;;;;12.08;73.35;95136.19;5028285;28;20591;-76
2021/10/21 07:44:09;;;;;;;9.17;1.20;;;;;;;12.05;72.97;95154.22;5037077;28;20017;-74
2021/10/21 07:46:35;;;;;;;11.20;1.63;;;;;;;11.91;73.75;95156.78;5032880;28;20498;-75
2021/10/21 07:49:02;;;;;;;7.50;1.73;;;;;;;11.82;75.30;95186.88;5040305;28;20616;-75
2021/10/21 07:51:31;;;;;;;11.47;1.63;;;;;;;11.79;74.85;95195.16;5023428;28;20029;-75
2021/10/21 07:54:00;;;;;;;11.07;1.87;;;;;;;11.74;74.60;95200.22;5028496;28;20032;-75
2021/10/21 07:56:27;;;;;;;13.07;1.57;;;;;;;11.75;75.00;95199.19;5028297;28;20040;-75
2021/10/21 07:58:53;;;;;;;7.27;1.50;;;;;;;11.72;75.22;95207.47;5039250;28;20228;-75
2021/10/21 08:01:18;;;;;;;7.27;1.27;;;;;;;11.66;75.74;95242.47;5039327;28;20032;-75
2021/10/21 08:03:44;;;;;;;8.43;1.47;;;;;;;11.73;74.91;95217.00;5037855;28;20492;-75
2021/10/21 08:06:10;;;;;;;10.10;2.63;;;;;;;11.68;75.61;95216.78;5034902;28;20064;-75
2021/10/21 08:08:36;;;;;;;6.53;1.27;;;;;;;11.70;74.79;95233.19;5034556;28;20387;-74
2021/10/21 08:11:02;;;;;;;8.37;1.07;;;;;;;11.68;75.28;95251.00;5031081;28;20490;-75
2021/10/21 08:13:29;;;;;;;9.70;1.47;;;;;;;11.80;74.60;95250.31;5013208;28;20025;-75
2021/10/21 08:15:57;;;;;;;6.17;1.20;;;;;;;11.78;74.54;95264.66;5068455;28;20037;-75
2021/10/21 08:18:22;;;;;;;10.07;1.70;;;;;;;11.73;74.48;95261.78;5035181;28;20038;-75
2021/10/21 08:20:48;;;;;;;6.90;1.20;;;;;;;11.77;75.32;95284.94;5068993;28;20135;-74
2021/10/21 08:23:14;;;;;;;12.00;2.13;;;;;;;11.78;74.74;95283.09;5028280;28;20477;-75
2021/10/21 08:25:40;;;;;;;5.87;1.27;;;;;;;11.80;74.76;95308.25;5037320;28;20510;-75
2021/10/21 08:28:06;;;;;;;7.00;1.07;;;;;;;11.77;74.27;95313.91;5033618;28;20044;-75
2021/10/21 08:30:36;;;;;;;7.60;1.00;;;;;;;11.84;74.09;95308.72;5030660;28;20044;-75
2021/10/21 08:33:03;;;;;;;9.00;1.50;;;;;;;11.84;73.42;95319.25;5041784;28;20036;-75
2021/10/21 08:35:29;;;;;;;6.87;0.90;;;;;;;11.83;73.05;95322.84;5027738;28;20097;-75
2021/10/21 08:37:58;;;;;;;4.90;1.03;;;;;;;11.91;72.66;95338.56;5029811;28;20029;-75
2021/10/21 08:40:23;;;;;;;7.07;1.43;;;;;;;11.94;71.92;95343.47;5030704;28;20104;-75
2021/10/21 08:42:49;;;;;;;4.50;0.90;;;;;;;11.94;69.59;95367.19;5037530;28;20467;-75
2021/10/21 08:45:15;;;;;;;5.43;0.93;;;;;;;11.98;67.99;95352.63;5040981;28;20033;-75
2021/10/21 08:47:44;;;;;;;2.23;0.63;;;;;;;12.05;67.92;95359.78;5028382;28;20034;-74
2021/10/21 08:50:12;;;;;;;5.83;1.17;;;;;;;12.05;68.93;95383.50;5008027;28;20034;-75
2021/10/21 08:52:38;;;;;;;2.00;0.87;;;;;;;12.15;67.97;95384.78;5031083;28;20095;-76
2021/10/21 08:55:05;;;;;;;8.00;1.73;;;;;;;12.10;69.09;95383.72;5026835;28;20510;-75
2021/10/21 08:57:32;;;;;;;2.97;1.00;;;;;;;12.06;66.61;95379.84;5035392;28;20029;-75
2021/10/21 08:59:58;;;;;;;4.20;0.50;;;;;;;11.96;68.15;95402.03;5036584;28;20044;-75
2021/10/21 09:02:34;;;;;;;6.47;0.53;;;;;;;11.95;66.47;95418.88;5036698;28;20037;-74
2021/10/21 09:05:46;;;;;;;2.27;0.50;;;;;;;11.88;67.04;95417.97;5034709;28;20033;-75
2021/10/21 09:08:15;;;;;;;1.80;0.53;;;;;;;11.92;68.42;95419.22;5036192;28;20534;-75
2021/10/21 09:10:53;;;;;;;2.70;0.73;;;;;;;11.92;67.50;95436.88;5040307;28;20064;-73
2021/10/21 09:13:38;;;;;;;2.50;1.20;;;;;;;11.86;68.10;95448.97;5040629;28;20593;-76
2021/10/21 09:16:09;;;;;;;6.33;1.10;;;;;;;11.89;68.10;95461.75;5027320;28;20049;-75
2021/10/21 09:18:43;;;;;;;2.90;0.73;;;;;;;11.81;68.71;95451.31;5039349;28;20033;-73
2021/10/21 09:21:31;;;;;;;5.00;1.00;;;;;;;11.98;70.67;95470.38;5052947;28;20029;-73
2021/10/21 09:24:32;;;;;;;3.50;0.60;;;;;;;11.73;68.79;95475.13;5032663;28;20064;-75
2021/10/21 09:27:18;;;;;;;3.30;0.40;;;;;;;11.74;69.72;95498.66;5015877;28;20029;-76
2021/10/21 09:29:46;;;;;;;3.60;0.73;;;;;;;11.67;70.22;95505.66;5046624;28;20036;-72
2021/10/21 09:32:27;;;;;;;6.30;0.90;;;;;;;11.74;71.42;95513.66;5037563;28;20487;-76
2021/10/21 09:34:59;;;;;;;4.90;1.60;;;;;;;11.71;72.87;95532.44;5059458;28;20091;-76
2021/10/21 09:37:30;;;;;;;5.13;1.70;;;;;;;11.68;72.05;95523.09;5042175;28;20037;-76
2021/10/21 09:39:58;;;;;;;3.73;0.67;;;;;;;11.65;72.61;95533.19;5015464;28;20029;-76
2021/10/21 09:42:33;;;;;;;4.43;0.40;;;;;;;11.47;72.71;95534.38;5016135;28;20032;-73
2021/10/21 09:45:23;;;;;;;3.83;0.50;;;;;;;11.18;73.30;95550.16;5019201;28;20029;-75
2021/10/21 09:48:00;;;;;;;5.20;0.63;;;;;;;11.08;73.94;95567.00;5049600;28;20087;-75
2021/10/21 09:50:55;;;;;;;1.93;0.27;;;;;;;11.06;73.63;95557.63;5021621;28;20043;-75
2021/10/21 09:53:24;;;;;;;6.93;0.70;;;;;;;11.22;74.16;95577.72;5024917;28;20434;-77
2021/10/21 09:55:59;;;;;;;5.00;0.63;;;;;;;11.11;72.23;95589.50;5033656;28;20025;-74
2021/10/21 09:58:25;;;;;;;2.20;0.80;;;;;;;11.06;72.34;95583.94;5036780;28;20033;-72
2021/10/21 10:00:51;;;;;;;3.87;0.77;;;;;;;11.00;71.62;95577.59;5041883;28;20394;-73
2021/10/21 10:03:21;;;;;;;1.80;0.80;;;;;;;11.08;72.33;95610.91;5038567;28;20033;-73
2021/10/21 10:05:54;;;;;;;5.90;1.10;;;;;;;11.12;72.28;95621.91;5035568;28;20033;-73
2021/10/21 10:08:21;;;;;;;2.67;0.70;;;;;;;11.13;71.99;95626.97;5043156;28;20041;-73
2021/10/21 10:10:50;;;;;;;4.37;0.73;;;;;;;10.97;73.59;95622.69;5040795;28;20115;-74
2021/10/21 10:13:17;;;;;;;3.97;0.80;;;;;;;11.06;74.43;95636.56;5039059;28;20067;-73
2021/10/21 10:15:44;;;;;;;6.13;1.37;;;;;;;11.25;73.70;95628.19;5042040;28;20033;-72
2021/10/21 10:18:28;;;;;;;6.53;2.13;;;;;;;11.59;72.53;95632.16;5020286;28;20033;-73
2021/10/21 10:21:00;;;;;;;;;;;;;;;11.45;72.05;95633.78;5042304;28;20558;-74
2021/10/21 10:23:26;;;;;;;3.17;0.63;;;;;;;11.29;72.91;95633.91;5039703;28;19917;-74
2021/10/21 10:25:52;;;;;;;0.90;0.40;;;;;;;11.13;72.37;95642.75;5021037;28;20156;-75
2021/10/21 10:28:19;;;;;;;2.17;0.90;;;;;;;11.29;72.73;95652.34;5032872;28;20526;-76
2021/10/21 10:30:57;;;;;;;2.73;0.43;;;;;;;11.73;72.64;95643.69;5007478;28;20986;-76
2021/10/21 10:33:32;;;;;;;1.40;0.63;;;;;;;11.53;72.35;95659.19;5021972;28;20037;-76
2021/10/21 10:36:28;;;;;;;1.73;0.60;;;;;;;11.50;72.32;95655.13;5021854;28;20563;-75
2021/10/21 10:39:06;;;;;;;2.37;0.40;;;;;;;11.61;73.05;95645.16;5038575;28;20025;-75
2021/10/21 10:41:41;;;;;;;1.93;0.50;;;;;;;11.75;72.42;95673.31;5040726;28;20031;-74
2021/10/21 10:44:08;;;;;;;1.90;0.63;;;;;;;11.93;71.16;95671.16;5037807;28;20037;-74
2021/10/21 10:46:53;;;;;;;2.93;0.60;;;;;;;11.74;70.43;95679.59;5033241;28;20448;-74
2021/10/21 10:49:38;;;;;;;2.57;0.60;;;;;;;11.37;70.05;95688.31;5031212;28;20183;-74
2021/10/21 10:52:17;;;;;;;2.97;0.60;;;;;;;11.26;70.36;95693.00;5028625;28;20116;-75
2021/10/21 10:54:52;;;;;;;2.13;0.60;;;;;;;12.07;66.65;95692.44;5020423;28;20033;-75
2021/10/21 10:57:23;;;;;;;4.73;1.80;;;;;;;12.58;65.60;95688.06;5043176;28;20039;-74
2021/10/21 10:59:49;;;;;;;1.70;0.70;;;;;;;12.98;64.79;95691.94;5036492;28;20045;-74
2021/10/21 11:02:32;;;;;;;11.87;1.10;;;;;;;13.84;64.39;95691.06;5067050;28;20040;-74
2021/10/21 11:04:59;;;;;;;;;;;;;;;13.13;61.80;95689.25;5029683;28;20483;-75
2021/10/21 11:07:39;;;;;;;5.30;0.83;;;;;;;13.67;60.29;95675.50;5040354;28;20565;-75
2021/10/21 11:10:16;;;;;;;2.27;0.40;;;;;;;14.18;58.45;95666.47;5008115;28;20068;-74
2021/10/21 11:12:42;;;;;;;3.10;0.50;;;;;;;14.27;56.28;95675.06;5025240;28;20029;-75
2021/10/21 11:15:43;;;;;;;2.73;0.53;;;;;;;13.81;55.97;95662.38;5038412;28;20041;-75
2021/10/21 11:18:09;;;;;;;2.93;0.50;;;;;;;14.39;53.73;95674.31;5005409;28;20506;-75
2021/10/21 11:20:35;;;;;;;4.03;0.60;;;;;;;14.16;54.48;95668.50;5031691;28;20045;-75
2021/10/21 11:23:28;;;;;;;2.63;0.63;;;;;;;14.28;55.14;95666.94;5028100;28;20025;-75
2021/10/21 11:26:01;;;;;;;2.42;0.57;;;;;;;14.53;53.65;95659.34;5028293;28;20687;-75
2021/10/21 11:28:28;;;;;;;4.70;0.63;;;;;;;13.90;54.81;95669.97;5029311;28;20049;-76
2021/10/21 11:30:54;;;;;;;3.73;0.60;;;;;;;13.93;54.10;95662.69;5029313;28;20032;-74
2021/10/21 11:33:19;;;;;;;4.50;0.90;;;;;;;14.64;52.99;95660.59;5018728;28;20107;-74